Time;durP1;ratioP1;P1;durP2;ratioP2;P2;SDS_P1;SDS_P2;PMS_P1;PMS_P2;Temp;Humidity;BMP_temperature;BMP_pressure;BME280_temperature;BME280_humidity;BME280_pressure;Samples;Min_cycle;Max_cycle;Signal;HPM_P1;HPM_P2
2022/04/12 00:01:03;;;;;;;17.03;16.13;;;;;;;12.80;83.63;99135.34;5073654;28;20075;-82
2022/04/12 00:03:31;;;;;;;15.82;14.98;;;;;;;12.93;83.49;99150.34;5060856;28;20101;-82
2022/04/12 00:05:58;;;;;;;13.97;12.73;;;;;;;12.98;83.29;99153.78;5071818;28;20051;-81
2022/04/12 00:08:25;;;;;;;13.87;12.53;;;;;;;12.97;83.16;99146.53;5075831;28;20120;-79
2022/04/12 00:10:53;;;;;;;14.00;12.57;;;;;;;13.28;82.41;99171.59;5067864;28;20515;-79
2022/04/12 00:13:20;;;;;;;12.93;12.20;;;;;;;13.27;82.29;99180.34;5050013;28;20088;-79
2022/04/12 00:15:51;;;;;;;12.20;11.17;;;;;;;13.03;81.80;99156.44;5074746;28;20472;-80
2022/04/12 00:21:03;;;;;;;14.97;13.50;;;;;;;12.99;82.14;99175.06;5081243;28;20019;-79
2022/04/12 00:23:30;;;;;;;13.47;12.67;;;;;;;12.59;82.83;99139.97;5070811;28;20557;-80
2022/04/12 00:25:57;;;;;;;16.03;13.53;;;;;;;12.70;82.94;99172.09;5085152;28;20127;-79
2022/04/12 00:28:24;;;;;;;13.07;12.10;;;;;;;12.50;82.95;99135.16;5071777;28;20095;-79
2022/04/12 00:30:51;;;;;;;12.77;12.03;;;;;;;12.74;83.12;99173.91;5072344;28;20136;-79
2022/04/12 00:33:18;;;;;;;13.67;12.87;;;;;;;12.70;83.18;99149.69;5075122;28;20079;-80
2022/04/12 00:35:45;;;;;;;13.23;12.23;;;;;;;12.58;82.50;99127.94;5063427;28;20123;-80
2022/04/12 00:38:18;;;;;;;17.80;13.20;;;;;;;12.68;82.59;99158.41;5073088;28;20167;-79
2022/04/12 00:40:46;;;;;;;20.60;19.40;;;;;;;12.67;83.00;99148.34;5064878;28;20076;-79
2022/04/12 00:43:15;;;;;;;34.80;33.00;;;;;;;12.50;83.18;99143.56;5057914;28;20053;-80
2022/04/12 00:45:42;;;;;;;30.30;28.35;;;;;;;12.43;83.66;99137.63;5073515;28;20098;-83
2022/04/12 00:48:10;;;;;;;28.10;26.60;;;;;;;12.48;83.72;99154.28;5074369;28;20072;-86
2022/04/12 00:50:38;;;;;;;20.03;18.60;;;;;;;12.56;83.93;99173.06;5082860;28;20083;-85
2022/04/12 00:53:07;;;;;;;23.33;21.97;;;;;;;12.30;84.73;99166.59;5085801;28;20503;-85
2022/04/12 00:55:34;;;;;;;17.60;16.27;;;;;;;12.23;85.33;99178.25;5083323;28;20048;-79
2022/04/12 00:58:07;;;;;;;22.90;21.50;;;;;;;12.17;85.03;99153.53;5075954;28;20106;-80
2022/04/12 01:00:35;;;;;;;24.40;22.37;;;;;;;12.27;85.20;99173.69;5072580;28;20511;-79
2022/04/12 01:03:02;;;;;;;23.90;22.50;;;;;;;12.12;85.78;99164.91;5071794;28;20098;-79
2022/04/12 01:05:30;;;;;;;22.87;21.33;;;;;;;12.03;85.20;99106.94;5072822;28;20047;-77
2022/04/12 01:07:57;;;;;;;10.10;2.10;;;;;;;12.14;85.68;99159.81;5073353;28;20503;-76
2022/04/12 01:10:24;;;;;;;10.53;9.63;;;;;;;12.25;85.07;99172.34;5067992;28;20472;-75
2022/04/12 01:12:52;;;;;;;21.43;19.80;;;;;;;12.22;85.37;99178.59;5058883;28;20075;-74
2022/04/12 01:15:24;;;;;;;20.23;18.67;;;;;;;12.39;84.72;99159.03;5063670;28;20053;-75
2022/04/12 01:17:51;;;;;;;19.33;17.87;;;;;;;12.29;84.73;99139.75;5070548;28;20127;-75
2022/04/12 01:20:30;;;;;;;18.47;16.80;;;;;;;12.40;84.93;99148.66;5066572;28;20132;-74
2022/04/12 01:23:12;;;;;;;20.20;18.90;;;;;;;12.42;84.78;99163.97;5064358;28;20123;-75
2022/04/12 01:25:39;;;;;;;23.87;19.60;;;;;;;12.41;84.78;99144.69;5071062;28;20567;-75
2022/04/12 01:28:08;;;;;;;21.10;19.27;;;;;;;12.53;84.29;99140.09;5069260;28;20084;-75
2022/04/12 01:30:35;;;;;;;18.53;17.53;;;;;;;12.40;84.62;99143.88;5071538;28;20049;-74
2022/04/12 01:33:03;;;;;;;18.77;17.63;;;;;;;12.43;84.46;99137.63;5072084;28;20070;-77
2022/04/12 01:35:30;;;;;;;20.87;19.73;;;;;;;12.62;84.29;99151.34;5064994;28;20143;-73
2022/04/12 01:37:57;;;;;;;18.57;17.27;;;;;;;12.55;84.46;99146.22;5062876;28;20115;-74
2022/04/12 01:40:24;;;;;;;17.07;15.73;;;;;;;12.62;84.50;99156.13;5069276;28;20401;-76
2022/04/12 01:42:52;;;;;;;17.10;15.47;;;;;;;12.47;83.90;99110.63;5065534;28;20139;-74
2022/04/12 01:45:21;;;;;;;18.23;16.97;;;;;;;12.59;83.96;99123.16;5066248;28;20060;-74
2022/04/12 01:47:48;;;;;;;17.13;16.23;;;;;;;12.40;83.71;99084.28;5058466;28;20055;-74
2022/04/12 01:50:16;;;;;;;17.47;16.27;;;;;;;12.87;83.77;99151.66;5065530;28;20091;-75
2022/04/12 01:52:42;;;;;;;19.00;17.60;;;;;;;12.74;83.73;99142.25;5068603;28;20148;-76
2022/04/12 01:55:10;;;;;;;18.73;17.30;;;;;;;12.79;84.01;99140.13;5058533;28;20135;-77
2022/04/12 01:57:37;;;;;;;20.23;18.10;;;;;;;12.70;83.69;99141.28;5076194;28;20072;-80
2022/04/12 02:00:07;;;;;;;19.57;17.87;;;;;;;12.75;84.15;99155.97;5071592;28;20076;-76
2022/04/12 02:02:34;;;;;;;18.95;17.58;;;;;;;12.72;83.66;99138.97;5067672;28;20139;-75
2022/04/12 02:05:01;;;;;;;21.10;17.40;;;;;;;12.77;84.00;99150.00;5068320;28;20045;-75
2022/04/12 02:07:28;;;;;;;20.33;19.07;;;;;;;12.80;83.71;99146.56;5068756;28;20067;-74
2022/04/12 02:09:54;;;;;;;18.07;16.87;;;;;;;12.57;83.79;99113.09;5071777;28;20127;-80
2022/04/12 02:12:21;;;;;;;18.57;16.37;;;;;;;12.90;83.56;99146.22;5070405;28;20056;-80
2022/04/12 02:14:48;;;;;;;18.67;17.37;;;;;;;13.00;83.74;99164.69;5053752;28;21487;-79
2022/04/12 02:17:15;;;;;;;18.07;16.83;;;;;;;12.84;83.42;99143.91;5061394;28;20178;-77
2022/04/12 02:19:42;;;;;;;19.60;16.93;;;;;;;12.95;83.79;99164.84;5066176;28;20109;-77
2022/04/12 02:22:08;;;;;;;15.90;14.77;;;;;;;12.96;83.65;99156.13;5051241;28;20119;-77
2022/04/12 02:24:35;;;;;;;17.13;15.80;;;;;;;13.01;83.53;99158.72;5070469;28;20132;-76
2022/04/12 02:27:02;;;;;;;19.03;17.73;;;;;;;12.90;83.43;99159.41;5068309;28;20090;-73
2022/04/12 02:29:29;;;;;;;27.43;24.90;;;;;;;12.76;83.50;99153.97;5069746;28;20128;-73
2022/04/12 02:32:02;;;;;;;8.13;2.57;;;;;;;12.66;83.99;99162.69;5073784;28;20076;-73
2022/04/12 02:34:29;;;;;;;20.10;18.80;;;;;;;12.64;84.30;99167.78;5064480;28;20499;-75
2022/04/12 02:36:56;;;;;;;21.30;19.50;;;;;;;12.55;84.51;99165.81;5070285;28;20082;-74
2022/04/12 02:39:23;;;;;;;19.70;18.50;;;;;;;12.56;84.33;99164.66;5072328;28;20083;-74
2022/04/12 02:41:50;;;;;;;18.27;17.37;;;;;;;12.44;84.84;99155.25;5064013;28;20079;-75
2022/04/12 02:44:17;;;;;;;18.53;17.03;;;;;;;12.69;84.64;99187.25;5068306;28;20128;-74
2022/04/12 02:46:44;;;;;;;19.47;18.07;;;;;;;12.57;84.63;99168.28;5064451;28;20563;-75
2022/04/12 02:49:11;;;;;;;17.93;16.87;;;;;;;12.64;84.30;99170.59;5064389;28;20135;-75
2022/04/12 02:51:37;;;;;;;16.03;15.20;;;;;;;12.56;84.21;99164.66;5074974;28;20467;-75
2022/04/12 02:54:05;;;;;;;15.60;14.80;;;;;;;12.63;84.39;99171.75;5032611;28;20089;-75
2022/04/12 02:56:31;;;;;;;15.50;14.50;;;;;;;12.55;84.21;99163.03;5033856;28;20129;-75
2022/04/12 02:58:58;;;;;;;15.47;14.20;;;;;;;12.51;84.47;99173.22;5029432;28;20132;-74
2022/04/12 03:01:25;;;;;;;16.10;14.77;;;;;;;12.29;84.06;99122.97;5032357;28;20094;-75
2022/04/12 03:03:52;;;;;;;15.20;14.20;;;;;;;12.59;84.19;99170.78;5030744;28;20053;-75
2022/04/12 03:06:19;;;;;;;14.27;13.47;;;;;;;12.66;84.09;99145.91;5031227;28;20506;-74
2022/04/12 03:08:46;;;;;;;14.97;14.07;;;;;;;12.82;83.59;99166.66;5049128;28;20156;-74
2022/04/12 03:11:13;;;;;;;15.73;14.27;;;;;;;12.90;83.34;99177.03;5030967;28;20128;-76
2022/04/12 03:13:39;;;;;;;14.73;13.50;;;;;;;12.95;83.25;99179.66;5029951;28;20041;-77
2022/04/12 03:16:06;;;;;;;14.97;14.23;;;;;;;13.00;83.07;99179.50;5030076;28;20046;-76
2022/04/12 03:18:33;;;;;;;14.13;13.20;;;;;;;12.76;83.42;99168.81;5033368;28;20080;-79
2022/04/12 03:21:00;;;;;;;15.33;13.97;;;;;;;12.95;83.02;99193.69;5036493;28;20556;-80
2022/04/12 03:23:27;;;;;;;17.43;16.37;;;;;;;12.98;83.11;99192.19;5029397;28;20129;-86
2022/04/12 03:25:54;;;;;;;17.63;16.40;;;;;;;12.85;82.93;99174.38;5031662;28;20096;-82
2022/04/12 03:28:20;;;;;;;17.33;16.40;;;;;;;12.76;83.47;99196.81;5031949;28;20099;-89
2022/04/12 03:30:47;;;;;;;19.40;17.77;;;;;;;12.59;83.92;99181.97;5033876;28;20395;-89
2022/04/12 03:33:14;;;;;;;17.30;16.30;;;;;;;12.41;83.96;99162.34;5031404;28;20116;-89
2022/04/12 03:35:42;;;;;;;19.17;17.70;;;;;;;12.63;83.98;99194.97;5034066;28;20472;-85
2022/04/12 03:38:09;;;;;;;19.00;18.00;;;;;;;12.66;83.98;99213.94;5042398;28;20154;-81
2022/04/12 03:40:36;;;;;;;19.07;18.03;;;;;;;12.49;84.36;99195.13;5031660;28;20097;-85
2022/04/12 03:43:05;;;;;;;20.10;18.50;;;;;;;12.61;84.22;99204.84;5031888;28;20134;-84
2022/04/12 03:45:33;;;;;;;20.00;18.33;;;;;;;12.61;84.06;99199.25;5028295;28;20138;-79
2022/04/12 03:48:00;;;;;;;20.70;19.33;;;;;;;12.58;83.81;99192.34;5038914;28;20077;-83
2022/04/12 03:50:28;;;;;;;21.37;19.90;;;;;;;12.40;84.43;99185.88;5032203;28;20068;-85
2022/04/12 03:52:55;;;;;;;20.57;19.47;;;;;;;12.60;84.02;99204.03;5047903;28;20061;-83
2022/04/12 03:55:39;;;;;;;21.53;19.93;;;;;;;12.51;84.17;99209.63;5066015;28;20131;-87
2022/04/12 03:58:08;;;;;;;20.83;19.47;;;;;;;12.54;84.34;99200.56;5064209;28;20080;-87
2022/04/12 04:00:35;;;;;;;22.00;20.40;;;;;;;12.42;84.49;99180.78;5063810;28;20103;-85
2022/04/12 04:03:02;;;;;;;21.50;19.90;;;;;;;12.25;84.72;99163.94;5070486;28;20106;-83
2022/04/12 04:05:29;;;;;;;22.10;20.80;;;;;;;12.51;84.72;99206.84;5070963;28;20048;-81
2022/04/12 04:07:57;;;;;;;21.57;19.73;;;;;;;12.41;84.69;99184.75;5064333;28;20132;-81
2022/04/12 04:10:24;;;;;;;27.37;25.47;;;;;;;12.48;84.55;99201.88;5067881;28;20044;-80
2022/04/12 04:12:53;;;;;;;27.83;25.83;;;;;;;12.39;84.37;99172.22;5061890;28;20075;-76
2022/04/12 04:15:20;;;;;;;26.98;25.38;;;;;;;12.23;84.69;99169.03;5057522;28;20071;-80
2022/04/12 04:17:49;;;;;;;24.57;23.07;;;;;;;12.50;84.55;99210.75;5070253;28;20064;-78
2022/04/12 04:20:19;;;;;;;25.93;23.90;;;;;;;12.31;84.75;99179.44;5066371;28;20136;-79
2022/04/12 04:22:46;;;;;;;25.40;23.67;;;;;;;12.34;84.62;99195.56;5067540;28;20084;-82
2022/04/12 04:25:17;;;;;;;27.13;25.43;;;;;;;12.43;84.48;99216.03;5072208;28;20080;-80
2022/04/12 04:27:44;;;;;;;27.80;25.03;;;;;;;12.55;84.22;99213.44;5068530;28;20566;-79
2022/04/12 04:30:13;;;;;;;26.88;24.98;;;;;;;12.39;84.71;99219.81;5073112;28;20052;-79
2022/04/12 04:32:40;;;;;;;25.33;23.30;;;;;;;12.48;84.18;99218.69;5055249;28;20056;-79
2022/04/12 04:35:07;;;;;;;22.17;20.70;;;;;;;12.32;84.38;99229.50;5071512;28;20072;-79
2022/04/12 04:37:46;;;;;;;20.30;18.87;;;;;;;12.43;84.12;99216.03;5077058;28;20075;-79
2022/04/12 04:40:18;;;;;;;19.57;18.40;;;;;;;12.47;83.96;99219.00;5070183;28;20095;-80
2022/04/12 04:42:45;;;;;;;18.77;17.13;;;;;;;12.45;83.64;99210.13;5071228;28;20584;-81
2022/04/12 04:45:13;;;;;;;18.03;17.13;;;;;;;12.46;83.56;99214.56;5070595;28;20049;-80
2022/04/12 04:47:55;;;;;;;17.63;16.50;;;;;;;12.44;83.42;99216.84;5074803;28;20475;-77
2022/04/12 04:50:23;;;;;;;17.20;16.20;;;;;;;12.50;82.99;99221.97;5066417;28;20077;-77
2022/04/12 04:52:51;;;;;;;17.20;15.50;;;;;;;12.45;82.98;99202.53;5060176;28;20087;-77
2022/04/12 04:55:19;;;;;;;17.23;16.00;;;;;;;12.49;82.90;99223.13;5071542;28;20503;-78
2022/04/12 04:57:47;;;;;;;15.37;14.23;;;;;;;12.54;82.79;99216.53;5076571;28;20079;-77
2022/04/12 05:00:16;;;;;;;14.70;13.90;;;;;;;12.57;82.76;99233.50;5070466;28;20072;-76
2022/04/12 05:02:44;;;;;;;15.10;14.40;;;;;;;12.55;82.69;99219.03;5061269;28;20096;-77
2022/04/12 05:05:12;;;;;;;16.07;15.03;;;;;;;12.66;82.34;99252.31;5072464;28;20908;-75
2022/04/12 05:07:40;;;;;;;14.97;14.23;;;;;;;12.69;82.24;99234.88;5063979;28;20110;-73
2022/04/12 05:10:08;;;;;;;15.93;15.13;;;;;;;12.71;82.37;99226.94;5066397;28;20138;-77
2022/04/12 05:12:35;;;;;;;15.40;14.40;;;;;;;12.72;82.40;99235.03;5071513;28;20053;-77
2022/04/12 05:15:02;;;;;;;15.27;14.37;;;;;;;12.61;82.69;99244.88;5059281;28;20140;-79
2022/04/12 05:17:29;;;;;;;14.33;13.53;;;;;;;12.61;82.43;99224.47;5067907;28;20132;-77
2022/04/12 05:19:58;;;;;;;13.80;13.10;;;;;;;12.47;82.46;99233.81;5051770;28;20592;-76
2022/04/12 05:22:27;;;;;;;13.82;13.13;;;;;;;12.49;82.54;99228.72;5064193;28;20053;-86
2022/04/12 05:24:54;;;;;;;14.47;13.23;;;;;;;12.49;82.78;99237.13;5067650;28;20055;-79
2022/04/12 05:27:21;;;;;;;16.33;15.13;;;;;;;12.53;82.91;99248.50;5062158;28;20547;-84
2022/04/12 05:29:49;;;;;;;15.60;14.50;;;;;;;12.51;83.17;99242.38;5052703;28;20072;-78
2022/04/12 05:32:16;;;;;;;16.57;15.40;;;;;;;12.33;83.52;99244.31;5066538;28;20132;-75
2022/04/12 05:34:43;;;;;;;19.83;17.27;;;;;;;12.47;83.36;99247.00;5069916;28;20044;-78
2022/04/12 05:37:10;;;;;;;16.40;15.17;;;;;;;12.49;83.56;99265.13;5081414;28;20105;-79
2022/04/12 05:39:37;;;;;;;16.20;14.93;;;;;;;12.41;83.49;99256.69;5071782;28;20131;-85
2022/04/12 05:42:04;;;;;;;14.20;13.50;;;;;;;12.07;83.42;99191.88;5068481;28;20051;-88
2022/04/12 05:44:34;;;;;;;16.10;15.10;;;;;;;12.57;83.35;99255.09;5066710;28;20167;-81
2022/04/12 05:47:02;;;;;;;;;;;;;;;12.54;83.41;99267.75;5068493;28;20068;-80
2022/04/12 05:49:30;;;;;;;18.00;16.60;;;;;;;12.49;83.32;99265.13;5072409;28;19921;-85
2022/04/12 05:51:57;;;;;;;15.80;14.80;;;;;;;12.52;83.35;99258.88;5062314;28;20139;-82
2022/04/12 05:54:24;;;;;;;14.57;13.67;;;;;;;12.47;83.38;99266.59;5064823;28;20408;-81
2022/04/12 05:56:51;;;;;;;15.63;14.70;;;;;;;12.54;83.51;99278.97;5063620;28;20677;-80
2022/04/12 05:59:18;;;;;;;14.93;13.60;;;;;;;12.47;83.38;99273.00;5067263;28;20123;-77
2022/04/12 06:01:45;;;;;;;16.93;15.30;;;;;;;12.41;83.64;99274.34;5067437;28;20077;-81
2022/04/12 06:04:12;;;;;;;15.43;14.43;;;;;;;12.50;83.57;99275.16;5071565;28;20141;-80
2022/04/12 06:06:41;;;;;;;20.80;19.30;;;;;;;12.61;83.45;99295.28;5071670;28;20091;-81
2022/04/12 06:09:08;;;;;;;15.48;14.45;;;;;;;12.77;83.05;99292.88;5064148;28;20087;-81
2022/04/12 06:11:35;;;;;;;17.53;16.43;;;;;;;12.63;83.50;99289.38;5067123;28;20095;-82
2022/04/12 06:14:03;;;;;;;15.27;14.13;;;;;;;12.81;83.21;99308.69;5068139;28;20461;-80
2022/04/12 06:16:30;;;;;;;15.53;14.33;;;;;;;12.60;83.71;99292.84;5064324;28;20041;-79
2022/04/12 06:18:57;;;;;;;14.43;13.37;;;;;;;12.68;83.43;99306.84;5066476;28;20468;-80
2022/04/12 06:21:24;;;;;;;14.10;13.33;;;;;;;12.63;83.85;99303.38;5068509;28;20139;-80
2022/04/12 06:23:51;;;;;;;13.70;12.80;;;;;;;12.74;83.10;99307.53;5069798;28;20087;-85
2022/04/12 06:26:18;;;;;;;14.87;13.77;;;;;;;12.55;83.53;99291.00;5060210;28;20044;-83
2022/04/12 06:28:44;;;;;;;14.37;12.93;;;;;;;12.53;83.75;99305.31;5049841;28;20075;-82
2022/04/12 06:31:11;;;;;;;13.13;12.27;;;;;;;12.74;83.32;99315.94;5066928;28;20048;-83
2022/04/12 06:33:39;;;;;;;12.90;12.27;;;;;;;12.78;83.38;99314.94;5063588;28;20460;-78
2022/04/12 06:36:06;;;;;;;13.63;12.50;;;;;;;12.61;83.53;99312.09;5065988;28;20156;-83
2022/04/12 06:38:33;;;;;;;13.00;12.20;;;;;;;12.54;83.41;99304.16;5072149;28;20071;-77
2022/04/12 06:41:00;;;;;;;12.87;11.97;;;;;;;12.68;83.41;99322.81;5065777;28;20123;-82
2022/04/12 06:43:26;;;;;;;20.07;13.57;;;;;;;12.71;83.24;99320.19;5064257;28;20062;-79
2022/04/12 06:45:53;;;;;;;15.20;13.87;;;;;;;12.69;83.38;99313.31;5062567;28;20059;-83
2022/04/12 06:48:21;;;;;;;14.07;12.73;;;;;;;12.79;83.11;99329.81;5064006;28;20467;-82
2022/04/12 06:50:47;;;;;;;13.23;12.37;;;;;;;12.74;83.41;99324.34;5069430;28;20076;-83
2022/04/12 06:53:14;;;;;;;14.07;12.87;;;;;;;12.60;83.27;99302.06;5073177;28;20578;-84
2022/04/12 06:55:41;;;;;;;13.67;12.30;;;;;;;12.85;82.73;99338.88;5074210;28;20075;-83
2022/04/12 06:58:08;;;;;;;15.13;14.03;;;;;;;12.80;83.10;99325.84;5070041;28;20053;-85
2022/04/12 07:00:36;;;;;;;14.83;13.37;;;;;;;12.74;83.05;99316.75;5068192;28;20048;-85
2022/04/12 07:03:03;;;;;;;15.53;14.03;;;;;;;12.95;83.14;99322.56;5053473;28;20076;-86
2022/04/12 07:05:30;;;;;;;14.50;13.00;;;;;;;13.08;83.22;99334.81;5075450;28;20078;-86
2022/04/12 07:07:57;;;;;;;13.50;12.40;;;;;;;13.15;83.06;99343.56;5074451;28;20076;-86
2022/04/12 07:10:24;;;;;;;15.10;13.50;;;;;;;12.92;82.98;99299.97;5074506;28;20148;-86
2022/04/12 07:12:53;;;;;;;15.03;13.87;;;;;;;13.16;82.78;99341.56;5071322;28;20063;-85
2022/04/12 07:15:21;;;;;;;14.15;13.13;;;;;;;13.05;83.01;99325.06;5056474;28;20048;-83
2022/04/12 07:17:48;;;;;;;17.40;15.57;;;;;;;13.04;83.45;99364.63;5069191;28;20171;-84
2022/04/12 07:20:15;;;;;;;17.43;16.10;;;;;;;12.93;83.20;99335.28;5060365;28;20048;-82
2022/04/12 07:22:42;;;;;;;17.30;16.30;;;;;;;12.82;83.62;99354.38;5066314;28;20087;-82
2022/04/12 07:25:09;;;;;;;15.80;14.80;;;;;;;12.74;83.52;99335.53;5061285;28;20064;-82
2022/04/12 07:27:37;;;;;;;17.50;16.40;;;;;;;12.79;83.44;99352.22;5060736;28;20801;-81
2022/04/12 07:30:06;;;;;;;19.53;18.17;;;;;;;12.98;83.40;99361.16;5068496;28;20082;-83
2022/04/12 07:32:33;;;;;;;17.97;17.10;;;;;;;12.80;83.84;99339.84;5068293;28;20139;-82
2022/04/12 07:35:00;;;;;;;23.63;22.23;;;;;;;12.65;83.87;99351.47;5070100;28;20140;-82
2022/04/12 07:37:26;;;;;;;29.10;27.47;;;;;;;12.59;84.20;99338.81;5059084;28;20076;-83
2022/04/12 07:39:55;;;;;;;25.53;23.57;;;;;;;12.77;84.04;99366.53;5066045;28;20083;-84
2022/04/12 07:42:23;;;;;;;36.07;33.30;;;;;;;12.71;83.93;99345.41;5069506;28;20159;-83
2022/04/12 07:44:51;;;;;;;25.50;23.97;;;;;;;12.73;84.22;99353.50;5067633;28;20131;-83
2022/04/12 07:47:18;;;;;;;27.20;24.40;;;;;;;12.88;84.30;99371.84;5066280;28;20045;-82
2022/04/12 07:49:45;;;;;;;27.27;24.90;;;;;;;12.94;84.25;99374.16;5070654;28;20052;-82
2022/04/12 07:52:11;;;;;;;24.70;22.70;;;;;;;12.87;84.33;99371.03;5068885;28;20155;-81
2022/04/12 07:54:38;;;;;;;24.23;22.03;;;;;;;13.07;84.34;99388.41;5051246;28;20480;-82
2022/04/12 07:57:06;;;;;;;26.30;24.23;;;;;;;13.06;84.38;99381.97;5064775;28;20190;-81
2022/04/12 07:59:32;;;;;;;20.67;17.83;;;;;;;13.02;84.51;99378.16;5074467;28;20072;-80
2022/04/12 08:02:01;;;;;;;25.23;22.20;;;;;;;13.04;84.46;99390.69;5072128;28;20076;-82
2022/04/12 08:04:28;;;;;;;20.93;17.30;;;;;;;13.22;84.58;99415.97;5073157;28;20048;-81
2022/04/12 08:06:54;;;;;;;15.40;14.07;;;;;;;13.32;84.34;99398.03;5075972;28;20081;-81
2022/04/12 08:09:21;;;;;;;17.40;15.60;;;;;;;13.30;84.22;99384.34;5070798;28;20083;-80
2022/04/12 08:11:48;;;;;;;14.83;13.53;;;;;;;13.47;83.81;99408.81;5072558;28;20080;-80
2022/04/12 08:14:15;;;;;;;17.60;15.37;;;;;;;13.65;83.73;99418.88;5072027;28;20124;-83
2022/04/12 08:16:42;;;;;;;28.30;19.40;;;;;;;13.61;83.65;99386.22;5081324;28;20041;-82
2022/04/12 08:19:09;;;;;;;23.67;16.83;;;;;;;13.87;83.65;99417.88;5080534;28;20067;-81
2022/04/12 08:21:38;;;;;;;28.80;16.50;;;;;;;14.07;83.59;99427.63;5067206;28;20064;-82
2022/04/12 08:24:07;;;;;;;18.73;17.05;;;;;;;13.85;83.47;99394.13;5082653;28;20088;-81
2022/04/12 08:26:34;;;;;;;23.00;16.27;;;;;;;14.01;83.31;99430.91;5089823;28;20051;-80
2022/04/12 08:29:01;;;;;;;22.90;15.80;;;;;;;14.06;83.23;99444.81;5089307;28;20060;-81
2022/04/12 08:31:28;;;;;;;19.17;14.27;;;;;;;14.01;83.35;99434.53;5091465;28;20045;-81
2022/04/12 08:33:55;;;;;;;26.07;17.87;;;;;;;14.02;83.47;99453.06;5077249;28;20411;-82
2022/04/12 08:36:22;;;;;;;23.90;19.03;;;;;;;13.91;83.61;99438.53;5070131;28;20049;-81
2022/04/12 08:38:52;;;;;;;22.42;18.65;;;;;;;14.10;83.68;99459.81;5068672;28;20227;-81
2022/04/12 08:41:23;;;;;;;22.97;19.10;;;;;;;13.97;83.60;99451.22;5075572;28;20079;-82
2022/04/12 08:43:59;;;;;;;15.13;8.63;;;;;;;13.75;83.56;99428.94;5066541;28;20048;-80
2022/04/12 08:46:27;;;;;;;10.52;2.75;;;;;;;13.88;83.42;99449.56;5068640;28;20072;-78
2022/04/12 08:48:57;;;;;;;8.97;2.60;;;;;;;13.77;83.19;99448.25;5077266;28;20052;-80
2022/04/12 08:51:28;;;;;;;10.17;2.77;;;;;;;13.47;82.51;99467.69;5051615;28;20135;-82
2022/04/12 08:53:57;;;;;;;8.20;1.77;;;;;;;13.34;82.36;99444.22;5056527;28;20057;-83
2022/04/12 08:56:26;;;;;;;35.03;32.47;;;;;;;13.27;82.88;99441.09;5066106;28;20134;-84
2022/04/12 08:58:53;;;;;;;33.90;31.30;;;;;;;12.99;83.22;99430.09;5067685;28;20100;-91
2022/04/12 09:01:36;;;;;;;13.53;2.50;;;;;;;13.25;83.08;99468.59;5070651;28;20068;-88
2022/04/12 09:04:04;;;;;;;13.80;3.00;;;;;;;13.38;83.00;99490.09;5069556;28;20135;-85
2022/04/12 09:06:31;;;;;;;16.13;2.77;;;;;;;13.41;83.45;99492.25;5072317;28;20127;-85
2022/04/12 09:09:17;;;;;;;38.43;35.30;;;;;;;13.24;84.03;99472.56;5041242;28;20090;-85
2022/04/12 09:12:12;;;;;;;38.83;35.33;;;;;;;13.42;84.15;99504.28;5052929;28;20610;-86
2022/04/12 09:14:54;;;;;;;40.67;36.83;;;;;;;13.25;84.23;99491.03;5068689;28;20127;-87
2022/04/12 09:17:35;;;;;;;39.27;35.83;;;;;;;13.28;84.14;99510.84;5068145;28;20076;-86
2022/04/12 09:20:07;;;;;;;40.57;36.87;;;;;;;13.24;84.10;99509.03;5066745;28;20056;-88
2022/04/12 09:22:34;;;;;;;23.07;15.90;;;;;;;13.17;83.89;99503.03;5048013;28;20088;-88
2022/04/12 09:25:10;;;;;;;9.27;2.83;;;;;;;13.31;84.20;99520.59;5064972;28;20078;-88
2022/04/12 09:27:38;;;;;;;;;;;;;;;13.34;84.40;99519.94;5069079;28;20041;-85
2022/04/12 09:30:10;;;;;;;39.37;36.37;;;;;;;13.09;84.18;99482.19;5070041;28;19924;-86
2022/04/12 09:32:44;;;;;;;38.35;35.33;;;;;;;13.15;84.18;99511.75;5072121;28;20048;-87
2022/04/12 09:35:12;;;;;;;60.87;56.90;;;;;;;12.98;84.18;99492.03;5060713;28;20076;-85
2022/04/12 09:37:42;;;;;;;36.83;33.97;;;;;;;13.00;84.26;99499.00;5080558;28;20052;-87
2022/04/12 09:40:16;;;;;;;45.50;42.25;;;;;;;13.08;84.22;99530.19;5081213;28;20075;-86
2022/04/12 09:42:52;;;;;;;33.07;30.33;;;;;;;13.15;84.29;99539.78;5069299;28;20048;-87
2022/04/12 09:45:20;;;;;;;28.63;27.13;;;;;;;13.24;84.12;99548.25;5069136;28;20072;-87
2022/04/12 09:47:48;;;;;;;25.67;24.17;;;;;;;13.31;84.07;99537.41;5067903;28;20084;-87
2022/04/12 09:50:35;;;;;;;22.87;21.40;;;;;;;13.49;84.14;99543.91;5070063;28;20055;-87
2022/04/12 09:53:11;;;;;;;23.70;21.33;;;;;;;13.49;84.12;99521.47;5068263;28;20060;-85
2022/04/12 09:55:42;;;;;;;25.03;23.80;;;;;;;13.72;84.32;99551.06;5071471;28;20118;-88
2022/04/12 09:58:12;;;;;;;19.63;17.93;;;;;;;13.81;84.49;99547.44;5069202;28;20048;-89
2022/04/12 10:00:41;;;;;;;22.70;20.10;;;;;;;14.06;85.04;99548.69;5071833;28;20044;-90
2022/04/12 10:03:28;;;;;;;20.50;18.20;;;;;;;14.38;85.52;99530.50;5070776;28;20056;-86
2022/04/12 10:05:56;;;;;;;22.33;17.73;;;;;;;15.14;85.79;99529.88;5060449;28;20048;-86
2022/04/12 10:08:23;;;;;;;19.17;16.70;;;;;;;16.00;85.67;99550.34;5060135;28;20111;-90
2022/04/12 10:10:50;;;;;;;17.55;15.80;;;;;;;16.68;84.75;99553.78;5066146;28;20079;-88
2022/04/12 10:13:17;;;;;;;17.85;16.08;;;;;;;17.26;84.68;99551.06;5066746;28;20086;-86
2022/04/12 10:15:44;;;;;;;17.73;14.00;;;;;;;17.66;84.47;99548.41;5068080;28;20124;-88
2022/04/12 10:18:18;;;;;;;22.40;16.90;;;;;;;17.62;84.15;99558.75;5067015;28;20127;-86
2022/04/12 10:20:46;;;;;;;15.75;14.20;;;;;;;17.28;84.38;99554.38;5066086;28;20475;-89
2022/04/12 10:23:22;;;;;;;14.90;13.70;;;;;;;16.90;84.47;99537.69;5069391;28;20052;-84
2022/04/12 10:25:51;;;;;;;15.15;13.82;;;;;;;16.96;85.10;99554.06;5063693;28;20080;-87
2022/04/12 10:28:19;;;;;;;21.10;14.13;;;;;;;17.28;84.17;99541.06;5069636;28;20092;-86
2022/04/12 10:30:46;;;;;;;14.95;13.68;;;;;;;17.34;83.80;99554.97;5069079;28;20168;-85
2022/04/12 10:33:16;;;;;;;14.63;12.85;;;;;;;17.49;83.63;99571.22;5072052;28;20068;-88
2022/04/12 10:35:44;;;;;;;13.45;12.20;;;;;;;17.57;83.27;99578.72;5066765;28;20105;-80
2022/04/12 10:38:12;;;;;;;15.57;14.57;;;;;;;17.41;83.05;99552.41;5072566;28;20141;-82
2022/04/12 10:40:44;;;;;;;15.48;14.38;;;;;;;17.53;83.45;99549.56;5066534;28;20140;-82
2022/04/12 10:43:22;;;;;;;14.18;12.90;;;;;;;18.02;83.00;99549.59;5072396;28;20135;-83
2022/04/12 10:45:52;;;;;;;12.38;11.30;;;;;;;18.56;81.57;99563.34;5065573;28;20056;-84
2022/04/12 10:48:19;;;;;;;;;;;;;;;18.58;82.04;99566.66;5059814;28;20137;-82
2022/04/12 10:50:48;;;;;;;13.05;11.63;;;;;;;18.29;81.16;99504.78;5059669;28;20019;-82
2022/04/12 10:53:35;;;;;;;;;;;;;;;18.85;81.70;99570.72;5059444;28;20139;-83
2022/04/12 10:56:08;;;;;;;12.48;11.23;;;;;;;19.13;80.19;99565.03;5057905;28;20019;-83
2022/04/12 10:58:36;;;;;;;13.00;11.88;;;;;;;18.81;80.25;99575.44;5061572;28;20126;-83
2022/04/12 11:01:04;;;;;;;15.88;12.80;;;;;;;18.54;80.23;99562.91;5061744;28;20171;-83
2022/04/12 11:03:40;;;;;;;14.60;13.38;;;;;;;18.91;79.96;99568.47;5060770;28;20432;-83
2022/04/12 11:06:21;;;;;;;14.43;11.43;;;;;;;19.20;79.29;99552.25;5074156;28;20041;-83
2022/04/12 11:08:50;;;;;;;12.30;11.60;;;;;;;20.21;77.71;99574.28;5064337;28;20108;-83
2022/04/12 11:11:41;;;;;;;11.50;10.48;;;;;;;20.04;78.18;99581.16;5072050;28;20101;-83
2022/04/12 11:14:27;;;;;;;11.18;10.38;;;;;;;19.33;79.42;99576.47;5068156;28;20110;-83
2022/04/12 11:16:59;;;;;;;11.30;10.30;;;;;;;18.85;80.16;99582.03;5073227;28;20095;-82
2022/04/12 11:19:26;;;;;;;13.15;11.35;;;;;;;18.60;80.34;99586.94;5065277;28;20080;-82
2022/04/12 11:22:01;;;;;;;11.48;10.32;;;;;;;18.29;79.89;99570.63;5075598;28;20492;-83
2022/04/12 11:24:28;;;;;;;14.07;12.98;;;;;;;18.11;80.46;99586.19;5068847;28;20598;-83
2022/04/12 11:27:10;;;;;;;12.32;11.18;;;;;;;17.93;81.27;99574.31;5073584;28;20068;-82
2022/04/12 11:29:39;;;;;;;10.88;9.90;;;;;;;18.30;81.08;99580.75;5070020;28;20064;-82